CMA CGM Magellan — 2DTI4 — position and weather

sailwx.info

Track history (hours):
 
Tides and Currents Weather Stations Pressure Air Temp Water Temp Dewpoint Dewpoint Depression Visibility Wind Speed Wind Dir Waves Ship Positions

CMA CGM Magellan

Last reported at 2017-Dec-16 20:29 UTC. Time now 2017-Dec-16 20:58 UTC.
Position N 49°39' W 003°22'.

Length 365 m; draft 13.9 m.

Type: Ship. MMSI: 235081888.

Date/timePositionNaut miles runAvg speedWind from/ knotsBaromVisibWave heightAir tempDewpointWater temp
2017-Dec-16 20:29N 49°39' W 003°22'1019.9
2017-Dec-16 19:58N 49°34' W 003°36'1120.0
2017-Dec-16 19:26N 49°30' W 003°52'5619.6
2017-Dec-16 16:34N 49°01' W 005°05'119.7
2017-Dec-16 16:30N 49°00' W 005°07'1020.0
2017-Dec-16 15:59N 48°54' W 005°20'1020.6
2017-Dec-16 15:30N 48°49' W 005°33'58218.8
2017-Dec-15 08:36N 39°38' W 009°52'319.2
2017-Dec-15 08:27N 39°35' W 009°52'818.6
2017-Dec-15 08:00N 39°27' W 009°52'918.5
2017-Dec-15 07:30N 39°18' W 009°52'918.3
2017-Dec-15 07:00N 39°09' W 009°51'918.3
2017-Dec-15 06:30N 38°59' W 009°51'918.9
2017-Dec-15 06:00N 38°50' W 009°51'918.3
2017-Dec-15 05:30N 38°41' W 009°49'918.8
2017-Dec-15 05:00N 38°32' W 009°46'918.7
2017-Dec-15 04:30N 38°23' W 009°43'918.6
2017-Dec-15 04:00N 38°14' W 009°41'2818.8
2017-Dec-15 02:30N 37°46' W 009°35'22117.7
2017-Dec-14 14:05N 35°58' W 005°34'116.7
2017-Dec-14 14:00N 35°59' W 005°33'816.0
2017-Dec-14 13:30N 36°02' W 005°24'611.1
2017-Dec-14 12:57N 36°08' W 005°25'1 0.8
2017-Dec-14 12:13N 36°08' W 005°25'0 0.0
2017-Dec-14 09:34N 36°08' W 005°25'0 0.0
2017-Dec-14 09:28N 36°08' W 005°25'0 0.0
2017-Dec-14 08:58N 36°08' W 005°25'0 0.0
2017-Dec-14 08:28N 36°08' W 005°25'0 0.0
2017-Dec-14 07:58N 36°08' W 005°25'0 0.0
2017-Dec-14 07:28N 36°08' W 005°25'0 0.0
2017-Dec-14 06:52N 36°08' W 005°25'0 0.0
2017-Dec-14 06:28N 36°08' W 005°25'0 0.0
2017-Dec-14 05:58N 36°08' W 005°25'0 0.0
2017-Dec-14 05:28N 36°08' W 005°25'0 0.0
2017-Dec-14 04:58N 36°08' W 005°25'0 0.0
2017-Dec-14 04:25N 36°08' W 005°25'0 0.0
2017-Dec-14 03:58N 36°08' W 005°25'0 0.0
2017-Dec-14 03:28N 36°08' W 005°25'0 0.0
2017-Dec-14 02:58N 36°08' W 005°25'0 0.0
2017-Dec-14 02:28N 36°08' W 005°25'0 0.0
2017-Dec-14 01:58N 36°08' W 005°25'0 0.0
2017-Dec-14 01:28N 36°08' W 005°25'0 0.0
2017-Dec-14 00:58N 36°08' W 005°25'0 0.0
2017-Dec-14 00:28N 36°08' W 005°25'0 0.0
2017-Dec-13 23:58N 36°08' W 005°25'0 0.0
2017-Dec-13 23:28N 36°08' W 005°25'0 0.0
2017-Dec-13 22:58N 36°08' W 005°25'0 0.0
2017-Dec-13 22:28N 36°08' W 005°25'0 0.0
2017-Dec-13 21:58N 36°08' W 005°25'0 0.0
2017-Dec-13 21:25N 36°08' W 005°25'0 0.0
2017-Dec-13 20:58N 36°08' W 005°25'0 0.0
2017-Dec-13 20:28N 36°08' W 005°25'18410.4
2017-Dec-13 02:43N 36°23' W 001°38'420.8
2017-Dec-13 02:30N 36°24' W 001°33'1020.8
2017-Dec-13 02:00N 36°28' W 001°21'1020.9
2017-Dec-13 01:30N 36°31' W 001°08'1121.1
2017-Dec-13 01:00N 36°34' W 000°56'70120.3
2017-Dec-11 14:25N 36°35' E 013°37'920.9
2017-Dec-11 13:59N 36°32' E 013°47'1123.5
2017-Dec-11 13:30N 36°30' E 014°01'918.0
2017-Dec-11 13:00N 36°27' E 014°12'1020.6
2017-Dec-11 12:30N 36°24' E 014°24'1020.4
2017-Dec-11 12:01N 36°21' E 014°36'1020.0
2017-Dec-11 11:30N 36°19' E 014°48'  
Track history (hours):
 
Tides and Currents Weather Stations Pressure Air Temp Water Temp Dewpoint Dewpoint Depression Visibility Wind Speed Wind Dir Waves Ship Positions

CMA CGM Magellan

Last reported at 2017-Dec-16 20:29 UTC. Time now 2017-Dec-16 20:58 UTC.
Position N 49°39' W 003°22'.

Length 365 m; draft 13.9 m.

Type: Ship. MMSI: 235081888.

Date/timePositionNaut miles runAvg speedWind from/ knotsBaromVisibWave heightAir tempDewpointWater temp
2017-Dec-16 20:29N 49°39' W 003°22'1019.9
2017-Dec-16 19:58N 49°34' W 003°36'1120.0
2017-Dec-16 19:26N 49°30' W 003°52'5619.6
2017-Dec-16 16:34N 49°01' W 005°05'119.7
2017-Dec-16 16:30N 49°00' W 005°07'1020.0
2017-Dec-16 15:59N 48°54' W 005°20'1020.6
2017-Dec-16 15:30N 48°49' W 005°33'58218.8
2017-Dec-15 08:36N 39°38' W 009°52'319.2
2017-Dec-15 08:27N 39°35' W 009°52'818.6
2017-Dec-15 08:00N 39°27' W 009°52'918.5
2017-Dec-15 07:30N 39°18' W 009°52'918.3
2017-Dec-15 07:00N 39°09' W 009°51'918.3
2017-Dec-15 06:30N 38°59' W 009°51'918.9
2017-Dec-15 06:00N 38°50' W 009°51'918.3
2017-Dec-15 05:30N 38°41' W 009°49'918.8
2017-Dec-15 05:00N 38°32' W 009°46'918.7
2017-Dec-15 04:30N 38°23' W 009°43'918.6
2017-Dec-15 04:00N 38°14' W 009°41'2818.8
2017-Dec-15 02:30N 37°46' W 009°35'22117.7
2017-Dec-14 14:05N 35°58' W 005°34'116.7
2017-Dec-14 14:00N 35°59' W 005°33'816.0
2017-Dec-14 13:30N 36°02' W 005°24'611.1
2017-Dec-14 12:57N 36°08' W 005°25'1 0.8
2017-Dec-14 12:13N 36°08' W 005°25'0 0.0
2017-Dec-14 09:34N 36°08' W 005°25'0 0.0
2017-Dec-14 09:28N 36°08' W 005°25'0 0.0
2017-Dec-14 08:58N 36°08' W 005°25'0 0.0
2017-Dec-14 08:28N 36°08' W 005°25'0 0.0
2017-Dec-14 07:58N 36°08' W 005°25'0 0.0
2017-Dec-14 07:28N 36°08' W 005°25'0 0.0
2017-Dec-14 06:52N 36°08' W 005°25'0 0.0
2017-Dec-14 06:28N 36°08' W 005°25'0 0.0
2017-Dec-14 05:58N 36°08' W 005°25'0 0.0
2017-Dec-14 05:28N 36°08' W 005°25'0 0.0
2017-Dec-14 04:58N 36°08' W 005°25'0 0.0
2017-Dec-14 04:25N 36°08' W 005°25'0 0.0
2017-Dec-14 03:58N 36°08' W 005°25'0 0.0
2017-Dec-14 03:28N 36°08' W 005°25'0 0.0
2017-Dec-14 02:58N 36°08' W 005°25'0 0.0
2017-Dec-14 02:28N 36°08' W 005°25'0 0.0
2017-Dec-14 01:58N 36°08' W 005°25'0 0.0
2017-Dec-14 01:28N 36°08' W 005°25'0 0.0
2017-Dec-14 00:58N 36°08' W 005°25'0 0.0
2017-Dec-14 00:28N 36°08' W 005°25'0 0.0
2017-Dec-13 23:58N 36°08' W 005°25'0 0.0
2017-Dec-13 23:28N 36°08' W 005°25'0 0.0
2017-Dec-13 22:58N 36°08' W 005°25'0 0.0
2017-Dec-13 22:28N 36°08' W 005°25'0 0.0
2017-Dec-13 21:58N 36°08' W 005°25'0 0.0
2017-Dec-13 21:25N 36°08' W 005°25'0 0.0
2017-Dec-13 20:58N 36°08' W 005°25'0 0.0
2017-Dec-13 20:28N 36°08' W 005°25'18410.4
2017-Dec-13 02:43N 36°23' W 001°38'420.8
2017-Dec-13 02:30N 36°24' W 001°33'1020.8
2017-Dec-13 02:00N 36°28' W 001°21'1020.9
2017-Dec-13 01:30N 36°31' W 001°08'1121.1
2017-Dec-13 01:00N 36°34' W 000°56'70120.3
2017-Dec-11 14:25N 36°35' E 013°37'920.9
2017-Dec-11 13:59N 36°32' E 013°47'1123.5
2017-Dec-11 13:30N 36°30' E 014°01'918.0
2017-Dec-11 13:00N 36°27' E 014°12'1020.6
2017-Dec-11 12:30N 36°24' E 014°24'1020.4
2017-Dec-11 12:01N 36°21' E 014°36'1020.0
2017-Dec-11 11:30N 36°19' E 014°48'  

Dump ship's entire track history